createdAt,value
2022-12-27T00:00:40.276Z,94454.19
2022-12-27T00:01:36.925Z,94452.59
2022-12-27T00:02:33.557Z,94459.44
2022-12-27T00:03:30.704Z,94458.09
2022-12-27T00:04:27.809Z,94454.78
2022-12-27T00:05:24.596Z,94446.66
2022-12-27T00:06:23.806Z,94455.66
2022-12-27T00:07:20.428Z,94453.22
2022-12-27T00:08:17.072Z,94435.13
2022-12-27T00:09:13.742Z,94449.03
2022-12-27T00:10:11.648Z,94444.38
2022-12-27T00:11:11.723Z,94447.16
2022-12-27T00:12:09.000Z,94447.19
2022-12-27T00:13:05.775Z,94446.94
2022-12-27T00:14:04.939Z,94449.94
2022-12-27T00:15:01.526Z,94449.31
2022-12-27T00:16:07.776Z,94444.84
2022-12-27T00:17:04.473Z,94448.50
2022-12-27T00:18:01.060Z,94447.94
2022-12-27T00:18:58.216Z,94447.84
2022-12-27T00:19:54.977Z,94447.50
2022-12-27T00:20:58.217Z,94447.50
2022-12-27T00:21:54.831Z,94414.78
2022-12-27T00:22:51.501Z,94441.44
2022-12-27T00:23:51.870Z,94444.81
2022-12-27T00:24:48.602Z,94444.88
2022-12-27T00:25:45.153Z,94436.50
2022-12-27T00:26:41.904Z,94451.69
2022-12-27T00:27:39.101Z,94442.78
2022-12-27T00:28:36.125Z,94394.53
2022-12-27T00:29:32.854Z,94453.22
2022-12-27T00:30:29.489Z,94450.13
2022-12-27T00:31:28.323Z,94453.22
2022-12-27T00:32:24.948Z,94450.94
2022-12-27T00:33:21.545Z,94430.34
2022-12-27T00:34:18.380Z,94391.63
2022-12-27T00:35:15.154Z,94454.41
2022-12-27T00:36:15.202Z,94452.66
2022-12-27T00:37:11.841Z,94453.41
2022-12-27T00:38:08.445Z,94451.94
2022-12-27T00:39:05.633Z,94451.63
2022-12-27T00:40:04.502Z,94455.00
2022-12-27T00:41:02.118Z,94438.06
2022-12-27T00:41:58.855Z,94455.97
2022-12-27T00:42:55.424Z,94457.66
2022-12-27T00:43:52.031Z,94388.06
2022-12-27T00:44:48.616Z,94447.38
2022-12-27T00:45:45.411Z,94455.75
2022-12-27T00:46:42.070Z,94459.13
2022-12-27T00:47:38.730Z,94454.41
2022-12-27T00:48:35.774Z,94450.94
2022-12-27T00:49:32.364Z,94460.38
2022-12-27T00:50:28.927Z,94456.75
2022-12-27T00:51:26.757Z,94447.13
2022-12-27T00:52:23.345Z,94373.19
2022-12-27T00:53:19.923Z,94452.94
2022-12-27T00:54:16.699Z,94377.69
2022-12-27T00:55:13.317Z,94445.06
2022-12-27T00:56:19.386Z,94446.28
2022-12-27T00:57:15.947Z,94446.41
2022-12-27T00:58:13.185Z,94458.91
2022-12-27T00:59:11.648Z,94462.09
2022-12-27T01:00:10.765Z,94435.22
2022-12-27T01:01:09.696Z,94459.25
2022-12-27T01:02:06.327Z,94456.06
2022-12-27T01:03:03.034Z,94304.84
2022-12-27T01:03:59.935Z,94431.09
2022-12-27T01:04:57.473Z,94460.22
2022-12-27T01:05:54.266Z,94453.91
2022-12-27T01:06:50.934Z,94430.66
2022-12-27T01:07:47.727Z,94455.34
2022-12-27T01:08:45.675Z,94461.44
2022-12-27T01:09:42.324Z,94463.31
2022-12-27T01:10:41.000Z,94452.22
2022-12-27T01:11:37.658Z,94414.41
2022-12-27T01:12:35.702Z,94461.69
2022-12-27T01:13:33.089Z,94451.78
2022-12-27T01:14:29.752Z,94460.13
2022-12-27T01:15:26.345Z,94456.41
2022-12-27T01:16:24.733Z,94440.63
2022-12-27T01:17:21.355Z,94444.38
2022-12-27T01:18:18.062Z,94442.31
2022-12-27T01:19:14.951Z,94429.75
2022-12-27T01:20:11.557Z,94443.66
2022-12-27T01:21:09.848Z,94431.84
2022-12-27T01:22:06.728Z,94431.00
2022-12-27T01:23:03.411Z,94434.94
2022-12-27T01:24:00.092Z,94433.91
2022-12-27T01:24:56.719Z,94434.69
2022-12-27T01:26:05.165Z,94439.13
2022-12-27T01:27:01.805Z,94445.88
2022-12-27T01:27:58.432Z,94436.56
2022-12-27T01:28:55.125Z,94442.25
2022-12-27T01:29:51.775Z,94447.41
2022-12-27T01:30:48.392Z,94436.06
2022-12-27T01:31:45.462Z,94429.66
2022-12-27T01:32:42.087Z,94422.22
2022-12-27T01:33:39.319Z,94438.09
2022-12-27T01:34:35.964Z,94384.38
2022-12-27T01:35:32.618Z,94441.75
2022-12-27T01:36:30.884Z,94452.16
2022-12-27T01:37:29.240Z,94440.94
2022-12-27T01:38:25.886Z,94442.53
2022-12-27T01:39:22.527Z,94442.94
2022-12-27T01:40:19.234Z,94436.22
2022-12-27T01:41:39.116Z,94439.72
2022-12-27T01:42:55.560Z,94450.63
2022-12-27T01:43:52.179Z,94442.25
2022-12-27T01:44:56.914Z,94452.16
2022-12-27T01:45:53.659Z,94451.28
2022-12-27T01:46:50.549Z,94396.69
2022-12-27T01:48:11.507Z,94442.63
2022-12-27T01:49:11.612Z,94449.34
2022-12-27T01:50:23.852Z,94397.25
2022-12-27T01:51:21.105Z,94435.44
2022-12-27T01:52:17.680Z,94431.69
2022-12-27T01:53:14.243Z,94452.69
2022-12-27T01:54:10.857Z,94444.22
2022-12-27T01:55:18.269Z,94400.81
2022-12-27T01:56:21.251Z,94433.84
2022-12-27T01:57:17.889Z,94438.97
2022-12-27T01:58:40.518Z,94438.28
2022-12-27T01:59:38.028Z,94435.88
2022-12-27T02:00:35.189Z,94439.00
2022-12-27T02:01:40.410Z,94431.28
2022-12-27T02:02:38.253Z,94345.69
2022-12-27T02:03:46.128Z,94434.22
2022-12-27T02:04:43.564Z,94443.88
2022-12-27T02:05:42.411Z,94443.50
2022-12-27T02:06:40.639Z,94435.81
2022-12-27T02:08:00.828Z,94433.81
2022-12-27T02:09:29.063Z,94432.06
2022-12-27T02:10:27.991Z,94420.09
2022-12-27T02:11:48.284Z,94434.06
2022-12-27T02:12:44.947Z,94429.91
2022-12-27T02:13:46.316Z,94436.47
2022-12-27T02:14:49.141Z,94425.59
2022-12-27T02:15:45.870Z,94443.16
2022-12-27T02:16:42.538Z,94415.41
2022-12-27T02:17:39.209Z,94380.16
2022-12-27T02:18:35.834Z,94418.41
2022-12-27T02:19:41.460Z,94438.22
2022-12-27T02:21:19.248Z,94350.97
2022-12-27T02:22:30.996Z,94442.88
2022-12-27T02:24:06.844Z,94444.53
2022-12-27T02:25:33.694Z,94436.72
2022-12-27T02:26:42.715Z,94444.91
2022-12-27T02:28:01.002Z,94432.13
2022-12-27T02:29:24.637Z,94431.34
2022-12-27T02:30:21.195Z,94439.06
2022-12-27T02:31:29.605Z,94426.66
2022-12-27T02:32:52.037Z,94444.28
2022-12-27T02:33:52.082Z,94440.53
2022-12-27T02:35:18.725Z,94435.13
2022-12-27T02:36:22.618Z,94432.19
2022-12-27T02:37:21.791Z,94449.78
2022-12-27T02:38:23.795Z,94434.25
2022-12-27T02:39:21.393Z,94434.84
2022-12-27T02:40:40.632Z,94389.00
2022-12-27T02:41:55.983Z,94353.88
2022-12-27T02:43:11.868Z,94398.38
2022-12-27T02:44:27.373Z,94372.94
2022-12-27T02:45:48.137Z,94424.38
2022-12-27T02:47:04.026Z,94421.00
2022-12-27T02:48:20.225Z,94427.63
2022-12-27T02:49:47.240Z,94424.25
2022-12-27T02:51:47.875Z,94429.22
2022-12-27T02:53:05.910Z,94427.06
2022-12-27T02:54:08.339Z,94434.81
2022-12-27T02:55:10.558Z,94425.59
2022-12-27T02:56:31.698Z,94424.53
2022-12-27T02:57:37.116Z,94427.63
2022-12-27T02:58:55.356Z,94431.03
2022-12-27T03:00:25.626Z,94433.97
2022-12-27T03:01:55.872Z,94436.88
2022-12-27T03:03:28.757Z,94436.00
2022-12-27T03:04:45.124Z,94429.00
2022-12-27T03:06:24.126Z,94433.97
2022-12-27T03:07:38.891Z,94440.19
2022-12-27T03:08:47.823Z,94436.25
2022-12-27T03:10:26.568Z,94437.06
2022-12-27T03:11:46.264Z,94435.81
2022-12-27T03:13:20.085Z,94444.53
2022-12-27T03:14:47.222Z,94451.03
2022-12-27T03:16:08.874Z,94443.19
2022-12-27T03:17:25.702Z,94446.31
2022-12-27T03:18:49.483Z,94450.00
2022-12-27T03:20:12.060Z,94419.47
2022-12-27T03:21:28.459Z,94437.16
2022-12-27T03:22:47.364Z,94435.81
2022-12-27T03:24:04.622Z,94428.41
2022-12-27T03:25:22.143Z,94435.84
2022-12-27T03:26:19.827Z,94377.25
2022-12-27T03:27:31.678Z,94421.44
2022-12-27T03:28:50.181Z,94418.00
2022-12-27T03:30:12.289Z,94433.75
2022-12-27T03:31:47.650Z,94435.56
2022-12-27T03:33:09.020Z,94441.97
2022-12-27T03:34:35.816Z,94450.31
2022-12-27T03:35:40.415Z,94435.38
2022-12-27T03:36:55.936Z,94437.97
2022-12-27T03:38:04.357Z,94430.53
2022-12-27T03:39:15.376Z,94433.50
2022-12-27T03:40:30.982Z,94437.16
2022-12-27T03:41:52.414Z,94424.44
2022-12-27T03:43:14.013Z,94418.91
2022-12-27T03:44:24.548Z,94411.75
2022-12-27T03:45:21.870Z,94434.34
2022-12-27T03:46:34.186Z,94435.03
2022-12-27T03:47:55.510Z,94422.06
2022-12-27T03:48:58.145Z,94438.88
2022-12-27T03:50:20.969Z,94441.81
2022-12-27T03:51:21.413Z,94444.19
2022-12-27T03:52:32.956Z,94454.31
2022-12-27T03:53:42.704Z,94442.06
2022-12-27T03:54:41.631Z,94439.94
2022-12-27T03:55:39.110Z,94439.16
2022-12-27T03:56:37.223Z,94400.13
2022-12-27T03:57:34.127Z,94440.50
2022-12-27T03:58:30.861Z,94439.25
2022-12-27T03:59:28.369Z,94451.88
2022-12-27T04:00:25.000Z,94458.66
2022-12-27T04:01:21.742Z,94378.47
2022-12-27T04:02:19.320Z,94447.91
2022-12-27T04:03:16.273Z,94428.81
2022-12-27T04:04:12.967Z,94442.19
2022-12-27T04:05:09.634Z,94450.88
2022-12-27T04:06:06.780Z,94434.13
2022-12-27T04:07:04.484Z,94447.25
2022-12-27T04:08:19.320Z,94433.03
2022-12-27T04:09:34.499Z,94444.84
2022-12-27T04:10:49.990Z,94447.16
2022-12-27T04:12:05.306Z,94423.81
2022-12-27T04:13:20.320Z,94454.50
2022-12-27T04:14:35.317Z,94446.19
2022-12-27T04:15:50.857Z,94453.28
2022-12-27T04:17:05.821Z,94456.66
2022-12-27T04:18:21.357Z,94462.09
2022-12-27T04:19:36.613Z,94460.63
2022-12-27T04:20:52.071Z,94464.06
2022-12-27T04:22:07.254Z,94463.03
2022-12-27T04:23:22.417Z,94465.41
2022-12-27T04:24:37.722Z,94459.09
2022-12-27T04:25:52.800Z,94473.53
2022-12-27T04:27:07.636Z,94453.31
2022-12-27T04:28:22.767Z,94468.81
2022-12-27T04:29:37.796Z,94479.88
2022-12-27T04:30:52.886Z,94405.41
2022-12-27T04:32:07.939Z,94473.59
2022-12-27T04:33:22.905Z,94466.75
2022-12-27T04:34:38.361Z,94445.78
2022-12-27T04:35:34.937Z,94453.09
2022-12-27T04:36:31.505Z,94471.44
2022-12-27T04:37:28.067Z,94472.28
2022-12-27T04:38:24.629Z,94473.34
2022-12-27T04:39:21.291Z,94474.06
2022-12-27T04:40:36.577Z,94473.53
2022-12-27T04:41:51.880Z,94476.16
2022-12-27T04:43:07.024Z,94473.50
2022-12-27T04:44:22.467Z,94468.75
2022-12-27T04:45:38.008Z,94471.69
2022-12-27T04:46:53.349Z,94465.69
2022-12-27T04:48:08.554Z,94468.56
2022-12-27T04:49:24.079Z,94471.47
2022-12-27T04:50:50.781Z,94439.19
2022-12-27T04:52:05.573Z,94474.59
2022-12-27T04:53:20.443Z,94460.41
2022-12-27T04:54:41.491Z,94458.88
2022-12-27T04:55:38.127Z,94461.75
2022-12-27T04:56:34.851Z,94463.88
2022-12-27T04:57:31.438Z,94462.53
2022-12-27T04:58:28.313Z,94469.09
2022-12-27T04:59:43.546Z,94463.06
2022-12-27T05:00:59.010Z,94472.00
2022-12-27T05:02:04.742Z,94466.75
2022-12-27T05:03:05.411Z,94470.41
2022-12-27T05:04:02.063Z,94472.78
2022-12-27T05:04:58.930Z,94468.06
2022-12-27T05:05:55.840Z,94471.78
2022-12-27T05:06:53.428Z,94474.88
2022-12-27T05:08:09.227Z,94468.59
2022-12-27T05:09:24.596Z,94469.38
2022-12-27T05:10:40.539Z,94467.31
2022-12-27T05:11:55.648Z,94469.38
2022-12-27T05:13:10.909Z,94468.34
2022-12-27T05:14:14.538Z,94469.38
2022-12-27T05:15:11.175Z,94475.66
2022-12-27T05:16:07.824Z,94478.53
2022-12-27T05:17:04.434Z,94471.91
2022-12-27T05:18:01.064Z,94459.88
2022-12-27T05:18:58.325Z,94467.28
2022-12-27T05:19:54.858Z,94475.16
2022-12-27T05:20:51.551Z,94477.03
2022-12-27T05:22:06.848Z,94473.09
2022-12-27T05:23:22.229Z,94478.84
2022-12-27T05:24:37.359Z,94478.59
2022-12-27T05:25:40.047Z,94465.47
2022-12-27T05:26:38.448Z,94457.84
2022-12-27T05:27:35.064Z,94464.94
2022-12-27T05:28:31.716Z,94449.75
2022-12-27T05:29:30.192Z,94462.88
2022-12-27T05:30:26.773Z,94467.31
2022-12-27T05:31:24.790Z,94464.69
2022-12-27T05:32:21.364Z,94466.50
2022-12-27T05:33:18.066Z,94418.53
2022-12-27T05:34:14.663Z,94476.22
2022-12-27T05:35:11.231Z,94468.09
2022-12-27T05:36:08.516Z,94458.41
2022-12-27T05:37:05.017Z,94470.47
2022-12-27T05:38:02.386Z,94484.09
2022-12-27T05:38:59.602Z,94470.97
2022-12-27T05:39:56.166Z,94471.75
2022-12-27T05:40:58.345Z,94466.50
2022-12-27T05:41:54.893Z,94477.53
2022-12-27T05:42:51.906Z,94475.44
2022-12-27T05:43:48.584Z,94470.47
2022-12-27T05:44:45.186Z,94483.06
2022-12-27T05:45:41.748Z,94469.41
2022-12-27T05:46:38.368Z,94468.63
2022-12-27T05:47:34.974Z,94472.28
2022-12-27T05:48:31.620Z,94462.84
2022-12-27T05:49:28.240Z,94473.59
2022-12-27T05:50:24.910Z,94463.09
2022-12-27T05:51:22.031Z,94465.75
2022-12-27T05:52:19.211Z,94470.72
2022-12-27T05:53:15.968Z,94476.16
2022-12-27T05:54:12.587Z,94465.13
2022-12-27T05:55:09.639Z,94467.25
2022-12-27T05:56:07.006Z,94474.38
2022-12-27T05:57:03.668Z,94475.41
2022-12-27T05:58:00.282Z,94428.22
2022-12-27T05:58:56.891Z,94466.47
2022-12-27T05:59:53.496Z,94470.38
2022-12-27T06:00:50.136Z,94469.81
2022-12-27T06:01:46.914Z,94466.66
2022-12-27T06:02:43.846Z,94465.09
2022-12-27T06:03:40.749Z,94464.53
2022-12-27T06:04:37.356Z,94464.69
2022-12-27T06:05:34.041Z,94454.84
2022-12-27T06:06:30.592Z,94455.44
2022-12-27T06:07:27.277Z,94467.22
2022-12-27T06:08:23.897Z,94462.31
2022-12-27T06:09:20.515Z,94468.88
2022-12-27T06:10:17.180Z,94468.03
2022-12-27T06:11:15.985Z,94467.22
2022-12-27T06:12:12.658Z,94438.94
2022-12-27T06:13:09.253Z,94469.03
2022-12-27T06:14:05.870Z,94463.56
2022-12-27T06:15:03.115Z,94458.03
2022-12-27T06:16:03.911Z,94433.97
2022-12-27T06:17:00.558Z,94463.88
2022-12-27T06:17:58.903Z,94463.16
2022-12-27T06:18:55.563Z,94466.41
2022-12-27T06:19:56.829Z,94455.69
2022-12-27T06:20:53.920Z,94471.56
2022-12-27T06:21:50.581Z,94468.19
2022-12-27T06:22:47.697Z,94471.22
2022-12-27T06:23:45.331Z,94475.69
2022-12-27T06:24:41.870Z,94464.19
2022-12-27T06:25:38.569Z,94473.13
2022-12-27T06:26:35.238Z,94471.06
2022-12-27T06:27:31.864Z,94461.53
2022-12-27T06:28:28.445Z,94457.69
2022-12-27T06:29:25.741Z,94473.44
2022-12-27T06:30:22.411Z,94475.56
2022-12-27T06:31:20.527Z,94476.88
2022-12-27T06:32:17.885Z,94464.50
2022-12-27T06:33:14.455Z,94469.19
2022-12-27T06:34:11.397Z,94451.34
2022-12-27T06:35:08.684Z,94449.50
2022-12-27T06:36:10.415Z,94473.88
2022-12-27T06:37:07.035Z,94467.66
2022-12-27T06:38:03.637Z,94470.94
2022-12-27T06:39:00.226Z,94472.06
2022-12-27T06:39:57.363Z,94471.28
2022-12-27T06:40:53.945Z,94477.09
2022-12-27T06:41:50.894Z,94465.06
2022-12-27T06:42:47.468Z,94470.00
2022-12-27T06:43:45.802Z,94443.50
2022-12-27T06:44:42.432Z,94484.91
2022-12-27T06:45:39.574Z,94471.78
2022-12-27T06:46:36.619Z,94484.09
2022-12-27T06:47:33.360Z,94483.50
2022-12-27T06:48:30.861Z,94483.47
2022-12-27T06:49:27.556Z,94480.00
2022-12-27T06:50:24.195Z,94475.63
2022-12-27T06:51:21.482Z,94484.72
2022-12-27T06:52:18.058Z,94489.06
2022-12-27T06:53:14.597Z,94487.00
2022-12-27T06:54:11.199Z,94482.53
2022-12-27T06:55:07.974Z,94482.78
2022-12-27T06:56:13.233Z,94463.88
2022-12-27T06:57:09.815Z,94490.06
2022-12-27T06:58:06.474Z,94460.28
2022-12-27T06:59:04.751Z,94486.59
2022-12-27T07:00:01.395Z,94471.53
2022-12-27T07:00:58.056Z,94494.81
2022-12-27T07:01:54.883Z,94495.09
2022-12-27T07:02:51.765Z,94489.19
2022-12-27T07:03:53.011Z,94458.72
2022-12-27T07:04:49.678Z,94450.44
2022-12-27T07:05:46.373Z,94496.81
2022-12-27T07:06:42.965Z,94442.06
2022-12-27T07:07:39.581Z,94489.13
2022-12-27T07:08:36.482Z,94483.91
2022-12-27T07:09:33.061Z,94487.69
2022-12-27T07:10:29.904Z,94490.56
2022-12-27T07:11:26.625Z,94483.72
2022-12-27T07:12:23.224Z,94478.13
2022-12-27T07:13:19.809Z,94480.88
2022-12-27T07:14:16.448Z,94478.09
2022-12-27T07:15:12.989Z,94480.75
2022-12-27T07:16:12.447Z,94482.69
2022-12-27T07:17:09.171Z,94486.06
2022-12-27T07:18:05.821Z,94487.47
2022-12-27T07:19:02.402Z,94471.91
2022-12-27T07:19:59.118Z,94492.78
2022-12-27T07:20:55.681Z,94485.59
2022-12-27T07:21:52.367Z,94473.03
2022-12-27T07:22:49.053Z,94489.06
2022-12-27T07:23:45.695Z,94486.88
2022-12-27T07:24:42.302Z,94459.47
2022-12-27T07:25:38.917Z,94488.72
2022-12-27T07:26:35.541Z,94479.16
2022-12-27T07:27:36.514Z,94482.00
2022-12-27T07:28:33.308Z,94481.56
2022-12-27T07:29:29.925Z,94486.28
2022-12-27T07:30:26.680Z,94471.09
2022-12-27T07:31:26.541Z,94486.28
2022-12-27T07:32:23.315Z,94487.09
2022-12-27T07:33:19.875Z,94484.72
2022-12-27T07:34:16.647Z,94484.94
2022-12-27T07:35:13.393Z,94478.38
2022-12-27T07:36:14.507Z,94448.41
2022-12-27T07:37:11.153Z,94478.34
2022-12-27T07:38:07.698Z,94478.22
2022-12-27T07:39:05.435Z,94480.13
2022-12-27T07:40:02.334Z,94473.16
2022-12-27T07:41:00.214Z,94478.69
2022-12-27T07:41:56.867Z,94472.88
2022-12-27T07:42:53.493Z,94478.00
2022-12-27T07:43:50.288Z,94460.31
2022-12-27T07:44:46.900Z,94468.38
2022-12-27T07:45:43.572Z,94466.59
2022-12-27T07:46:40.204Z,94468.00
2022-12-27T07:47:36.794Z,94420.66
2022-12-27T07:48:33.444Z,94472.50
2022-12-27T07:49:30.025Z,94471.34
2022-12-27T07:50:26.644Z,94468.78
2022-12-27T07:51:24.501Z,94463.19
2022-12-27T07:52:21.105Z,94466.16
2022-12-27T07:53:17.683Z,94459.13
2022-12-27T07:54:14.320Z,94479.81
2022-12-27T07:55:10.931Z,94474.03
2022-12-27T07:56:10.831Z,94475.59
2022-12-27T07:57:07.494Z,94477.28
2022-12-27T07:58:04.203Z,94467.41
2022-12-27T07:59:01.965Z,94475.38
2022-12-27T07:59:58.603Z,94470.88
2022-12-27T08:00:55.304Z,94468.53
2022-12-27T08:02:04.225Z,94479.25
2022-12-27T08:03:01.118Z,94488.34
2022-12-27T08:03:57.760Z,94480.41
2022-12-27T08:04:54.360Z,94439.75
2022-12-27T08:05:54.390Z,94466.78
2022-12-27T08:06:51.061Z,94476.31
2022-12-27T08:07:47.726Z,94477.47
2022-12-27T08:08:45.250Z,94476.13
2022-12-27T08:09:44.939Z,94481.38
2022-12-27T08:10:41.584Z,94485.28
2022-12-27T08:11:38.158Z,94479.41
2022-12-27T08:12:34.732Z,94474.03
2022-12-27T08:13:31.328Z,94485.41
2022-12-27T08:14:27.960Z,94479.84
2022-12-27T08:15:24.626Z,94481.28
2022-12-27T08:16:24.213Z,94462.28
2022-12-27T08:17:28.082Z,94473.16
2022-12-27T08:18:24.800Z,94480.00
2022-12-27T08:19:21.381Z,94475.81
2022-12-27T08:20:18.050Z,94478.44
2022-12-27T08:21:14.930Z,94477.16
2022-12-27T08:22:11.530Z,94474.38
2022-12-27T08:23:08.090Z,94477.63
2022-12-27T08:24:05.086Z,94438.53
2022-12-27T08:25:02.117Z,94440.56
2022-12-27T08:25:59.339Z,94489.47
2022-12-27T08:26:55.897Z,94491.50
2022-12-27T08:27:52.521Z,94492.06
2022-12-27T08:28:49.209Z,94482.75
2022-12-27T08:29:45.805Z,94493.59
2022-12-27T08:30:44.375Z,94494.88
2022-12-27T08:31:41.013Z,94491.16
2022-12-27T08:32:37.608Z,94477.97
2022-12-27T08:33:34.252Z,94491.56
2022-12-27T08:34:31.029Z,94489.47
2022-12-27T08:35:52.118Z,94484.50
2022-12-27T08:36:59.531Z,94495.19
2022-12-27T08:37:56.611Z,94492.84
2022-12-27T08:38:56.601Z,94468.56
2022-12-27T08:39:55.439Z,94487.88
2022-12-27T08:40:55.611Z,94488.00
2022-12-27T08:41:53.782Z,94457.97
2022-12-27T08:42:50.367Z,94480.38
2022-12-27T08:43:46.962Z,94484.59
2022-12-27T08:44:44.149Z,94480.94
2022-12-27T08:45:40.882Z,94474.25
2022-12-27T08:46:37.711Z,94484.06
2022-12-27T08:47:34.335Z,94477.63
2022-12-27T08:48:33.626Z,94445.50
2022-12-27T08:49:30.574Z,94479.72
2022-12-27T08:50:28.150Z,94482.91
2022-12-27T08:51:34.299Z,94481.53
2022-12-27T08:52:35.509Z,94446.38
2022-12-27T08:53:32.169Z,94463.00
2022-12-27T08:54:28.747Z,94478.69
2022-12-27T08:55:29.489Z,94471.66
2022-12-27T08:56:26.403Z,94467.72
2022-12-27T08:57:22.994Z,94456.56
2022-12-27T08:58:19.568Z,94473.03
2022-12-27T08:59:16.636Z,94451.34
2022-12-27T09:00:14.037Z,94482.78
2022-12-27T09:01:10.896Z,94471.13
2022-12-27T09:02:07.716Z,94471.09
2022-12-27T09:03:04.485Z,94463.72
2022-12-27T09:04:01.100Z,94456.75
2022-12-27T09:04:57.693Z,94460.34
2022-12-27T09:05:54.257Z,94443.41
2022-12-27T09:06:50.869Z,94461.88
2022-12-27T09:07:48.158Z,94448.47
2022-12-27T09:08:46.833Z,94432.84
2022-12-27T09:09:43.545Z,94451.78
2022-12-27T09:10:40.177Z,94444.19
2022-12-27T09:11:36.952Z,94452.97
2022-12-27T09:12:34.524Z,94417.94
2022-12-27T09:13:31.981Z,94453.28
2022-12-27T09:14:29.189Z,94455.50
2022-12-27T09:15:25.774Z,94458.09
2022-12-27T09:16:25.062Z,94453.72
2022-12-27T09:17:21.751Z,94458.47
2022-12-27T09:18:18.298Z,94453.59
2022-12-27T09:19:14.932Z,94435.19
2022-12-27T09:20:12.453Z,94417.69
2022-12-27T09:21:12.275Z,94456.25
2022-12-27T09:22:08.961Z,94436.00
2022-12-27T09:23:05.486Z,94429.00
2022-12-27T09:24:04.340Z,94455.09
2022-12-27T09:25:00.967Z,94446.69
2022-12-27T09:25:57.515Z,94450.31
2022-12-27T09:26:54.187Z,94447.47
2022-12-27T09:27:50.772Z,94439.28
2022-12-27T09:28:48.698Z,94436.09
2022-12-27T09:29:48.467Z,94437.44
2022-12-27T09:30:45.314Z,94443.78
2022-12-27T09:31:41.918Z,94437.94
2022-12-27T09:32:38.488Z,94442.84
2022-12-27T09:33:35.152Z,94427.91
2022-12-27T09:34:32.104Z,94440.56
2022-12-27T09:35:29.060Z,94444.38
2022-12-27T09:36:30.028Z,94449.72
2022-12-27T09:37:26.602Z,94442.81
2022-12-27T09:38:23.357Z,94437.22
2022-12-27T09:39:19.961Z,94443.19
2022-12-27T09:40:19.849Z,94442.06
2022-12-27T09:42:44.421Z,94445.13
2022-12-27T09:43:23.964Z,94440.19
2022-12-27T09:44:33.073Z,94434.34
2022-12-27T09:45:44.098Z,94433.19
2022-12-27T09:46:40.925Z,94434.56
2022-12-27T09:47:52.408Z,94429.13
2022-12-27T09:48:52.005Z,94425.53
2022-12-27T09:49:53.584Z,94424.13
2022-12-27T09:50:55.557Z,94421.13
2022-12-27T09:51:58.199Z,94427.06
2022-12-27T09:53:02.112Z,94417.84
2022-12-27T09:54:12.215Z,94421.47
2022-12-27T09:55:35.253Z,94414.38
2022-12-27T09:56:54.599Z,94420.38
2022-12-27T09:58:05.785Z,94413.56
2022-12-27T09:59:31.929Z,94414.22
2022-12-27T10:00:34.408Z,94416.75
2022-12-27T10:01:37.303Z,94414.53
2022-12-27T10:02:34.999Z,94413.06
2022-12-27T10:03:32.654Z,94415.38
2022-12-27T10:05:09.842Z,94420.41
2022-12-27T10:06:15.650Z,94406.50
2022-12-27T10:07:49.660Z,94407.56
2022-12-27T10:09:07.882Z,94407.53
2022-12-27T10:10:31.799Z,94405.03
2022-12-27T10:11:40.163Z,94402.94
2022-12-27T10:12:51.209Z,94418.59
2022-12-27T10:13:59.213Z,94402.78
2022-12-27T10:15:01.846Z,94403.53
2022-12-27T10:16:04.320Z,94399.94
2022-12-27T10:17:03.574Z,94409.34
2022-12-27T10:18:20.271Z,94405.97
2022-12-27T10:19:35.925Z,94398.41
2022-12-27T10:20:55.472Z,94389.00
2022-12-27T10:22:16.342Z,94388.53
2022-12-27T10:23:19.589Z,94396.06
2022-12-27T10:24:37.789Z,94395.63
2022-12-27T10:25:36.149Z,94390.88
2022-12-27T10:26:33.237Z,94387.91
2022-12-27T10:27:30.809Z,94392.81
2022-12-27T10:28:38.817Z,94378.72
2022-12-27T10:29:36.679Z,94379.44
2022-12-27T10:30:33.263Z,94384.63
2022-12-27T10:31:31.730Z,94383.91
2022-12-27T10:32:28.432Z,94381.13
2022-12-27T10:33:28.740Z,94386.00
2022-12-27T10:34:25.459Z,94393.59
2022-12-27T10:35:22.671Z,94349.84
2022-12-27T10:36:25.956Z,94391.50
2022-12-27T10:37:22.745Z,94362.34
2022-12-27T10:38:20.510Z,94386.50
2022-12-27T10:39:19.448Z,94381.16
2022-12-27T10:40:34.611Z,94352.09
2022-12-27T10:41:50.260Z,94395.22
2022-12-27T10:43:05.577Z,94392.53
2022-12-27T10:44:04.544Z,94391.34
2022-12-27T10:45:29.324Z,94390.66
2022-12-27T10:46:32.976Z,94375.91
2022-12-27T10:47:30.180Z,94389.63
2022-12-27T10:48:47.445Z,94389.78
2022-12-27T10:50:13.107Z,94388.94
2022-12-27T10:51:11.912Z,94381.53
2022-12-27T10:52:15.811Z,94374.66
2022-12-27T10:53:30.163Z,94385.78
2022-12-27T10:54:30.527Z,94368.16
2022-12-27T10:55:34.400Z,94386.38
2022-12-27T10:56:41.523Z,94383.59
2022-12-27T10:57:38.086Z,94370.97
2022-12-27T10:58:39.030Z,94384.94
2022-12-27T10:59:35.832Z,94379.94
2022-12-27T11:00:32.581Z,94381.25
2022-12-27T11:01:32.471Z,94379.16
2022-12-27T11:02:29.357Z,94353.31
2022-12-27T11:03:28.913Z,94373.81
2022-12-27T11:04:26.133Z,94375.47
2022-12-27T11:05:25.943Z,94371.44
2022-12-27T11:06:25.777Z,94367.22
2022-12-27T11:07:22.348Z,94333.28
2022-12-27T11:08:20.844Z,94375.13
2022-12-27T11:09:20.740Z,94378.56
2022-12-27T11:10:21.727Z,94332.28
2022-12-27T11:11:18.278Z,94372.16
2022-12-27T11:12:28.627Z,94376.31
2022-12-27T11:13:25.204Z,94351.41
2022-12-27T11:14:22.458Z,94366.09
2022-12-27T11:15:20.224Z,94368.47
2022-12-27T11:16:31.555Z,94341.38
2022-12-27T11:17:46.534Z,94364.69
2022-12-27T11:18:50.322Z,94363.84
2022-12-27T11:19:47.889Z,94359.75
2022-12-27T11:20:56.869Z,94358.56
2022-12-27T11:21:55.465Z,94367.00
2022-12-27T11:23:13.706Z,94361.16
2022-12-27T11:24:15.625Z,94342.81
2022-12-27T11:25:15.373Z,94350.97
2022-12-27T11:26:20.397Z,94354.78
2022-12-27T11:27:24.527Z,94333.03
2022-12-27T11:28:33.969Z,94360.97
2022-12-27T11:29:32.903Z,94364.31
2022-12-27T11:30:31.856Z,94333.50
2022-12-27T11:31:32.710Z,94361.50
2022-12-27T11:32:29.389Z,94339.06
2022-12-27T11:33:37.581Z,94349.94
2022-12-27T11:34:37.635Z,94327.88
2022-12-27T11:35:44.944Z,94358.97
2022-12-27T11:36:45.706Z,94353.19
2022-12-27T11:37:42.423Z,94358.31
2022-12-27T11:38:42.688Z,94343.63
2022-12-27T11:39:39.240Z,94362.09
2022-12-27T11:40:36.190Z,94334.28
2022-12-27T11:41:40.320Z,94359.28
2022-12-27T11:42:49.977Z,94368.34
2022-12-27T11:44:09.611Z,94345.84
2022-12-27T11:45:18.462Z,94368.84
2022-12-27T11:46:30.728Z,94352.78
2022-12-27T11:47:57.606Z,94364.00
2022-12-27T11:49:01.747Z,94369.59
2022-12-27T11:50:05.919Z,94367.84
2022-12-27T11:51:17.572Z,94377.84
2022-12-27T11:52:33.778Z,94373.06
2022-12-27T11:53:39.221Z,94371.94
2022-12-27T11:55:14.232Z,94372.03
2022-12-27T11:56:26.415Z,94343.38
2022-12-27T11:57:56.845Z,94375.63
2022-12-27T11:59:29.300Z,94377.88
2022-12-27T12:00:37.837Z,94372.47
2022-12-27T12:02:18.719Z,94381.47
2022-12-27T12:04:09.461Z,94379.06
2022-12-27T12:05:57.021Z,94376.94
2022-12-27T12:06:59.354Z,94377.13
2022-12-27T12:08:23.704Z,94376.56
2022-12-27T12:09:40.371Z,94369.59
2022-12-27T12:10:42.968Z,94373.50
2022-12-27T12:11:42.341Z,94372.09
2022-12-27T12:12:47.883Z,94379.03
2022-12-27T12:14:20.996Z,94362.44
2022-12-27T12:15:17.517Z,94370.34
2022-12-27T12:17:01.024Z,94375.47
2022-12-27T12:18:29.743Z,94379.81
2022-12-27T12:19:59.428Z,94377.91
2022-12-27T12:21:17.708Z,94342.66
2022-12-27T12:22:51.208Z,94377.91